sensor_id;sensor_type;location;lat;lon;timestamp;pressure;altitude;pressure_sealevel;temperature;humidity
15884;BME280;8040;50.254;10.960;2023-08-07T00:03:40;97407.69;;;14.91;100.00
15884;BME280;8040;50.254;10.960;2023-08-07T00:06:08;97406.91;;;14.90;100.00
15884;BME280;8040;50.254;10.960;2023-08-07T00:08:33;97399.50;;;14.91;100.00
15884;BME280;8040;50.254;10.960;2023-08-07T00:11:05;97408.47;;;14.91;100.00
15884;BME280;8040;50.254;10.960;2023-08-07T00:13:31;97406.91;;;14.90;100.00
15884;BME280;8040;50.254;10.960;2023-08-07T00:15:56;97402.69;;;14.93;100.00
15884;BME280;8040;50.254;10.960;2023-08-07T00:18:21;97405.75;;;14.91;100.00
15884;BME280;8040;50.254;10.960;2023-08-07T00:20:47;97395.19;;;14.90;100.00
15884;BME280;8040;50.254;10.960;2023-08-07T00:23:12;97398.38;;;14.92;100.00
15884;BME280;8040;50.254;10.960;2023-08-07T00:25:38;97408.38;;;14.88;100.00
15884;BME280;8040;50.254;10.960;2023-08-07T00:28:04;97402.16;;;14.87;100.00
15884;BME280;8040;50.254;10.960;2023-08-07T00:30:29;97408.38;;;14.88;100.00
15884;BME280;8040;50.254;10.960;2023-08-07T00:32:54;97411.13;;;14.88;100.00
15884;BME280;8040;50.254;10.960;2023-08-07T00:35:20;97409.97;;;14.89;100.00
15884;BME280;8040;50.254;10.960;2023-08-07T00:37:45;97407.22;;;14.89;100.00
15884;BME280;8040;50.254;10.960;2023-08-07T00:40:10;97406.47;;;14.88;100.00
15884;BME280;8040;50.254;10.960;2023-08-07T00:42:36;97409.09;;;14.85;100.00
15884;BME280;8040;50.254;10.960;2023-08-07T00:45:01;97405.13;;;14.82;100.00
15884;BME280;8040;50.254;10.960;2023-08-07T00:47:32;97407.50;;;14.84;100.00
15884;BME280;8040;50.254;10.960;2023-08-07T00:49:58;97411.13;;;14.88;100.00
15884;BME280;8040;50.254;10.960;2023-08-07T00:52:24;97409.78;;;14.82;100.00
15884;BME280;8040;50.254;10.960;2023-08-07T00:54:49;97414.56;;;14.85;100.00
15884;BME280;8040;50.254;10.960;2023-08-07T00:57:15;97421.94;;;14.84;100.00
15884;BME280;8040;50.254;10.960;2023-08-07T00:59:41;97414.09;;;14.83;100.00
15884;BME280;8040;50.254;10.960;2023-08-07T01:02:07;97425.47;;;14.85;100.00
15884;BME280;8040;50.254;10.960;2023-08-07T01:04:33;97424.31;;;14.86;100.00
15884;BME280;8040;50.254;10.960;2023-08-07T01:06:58;97424.31;;;14.86;100.00
15884;BME280;8040;50.254;10.960;2023-08-07T01:09:27;97425.47;;;14.85;100.00
15884;BME280;8040;50.254;10.960;2023-08-07T01:12:13;97423.53;;;14.85;100.00
15884;BME280;8040;50.254;10.960;2023-08-07T01:14:41;97423.88;;;14.84;100.00
15884;BME280;8040;50.254;10.960;2023-08-07T01:17:10;97420.34;;;14.83;100.00
15884;BME280;8040;50.254;10.960;2023-08-07T01:19:36;97420.00;;;14.85;100.00
15884;BME280;8040;50.254;10.960;2023-08-07T01:22:08;97429.22;;;14.80;100.00
15884;BME280;8040;50.254;10.960;2023-08-07T01:24:33;97427.72;;;14.83;100.00
15884;BME280;8040;50.254;10.960;2023-08-07T01:27:00;97428.09;;;14.81;100.00
15884;BME280;8040;50.254;10.960;2023-08-07T01:29:36;97432.09;;;14.84;100.00
15884;BME280;8040;50.254;10.960;2023-08-07T01:32:05;97438.41;;;14.88;100.00
15884;BME280;8040;50.254;10.960;2023-08-07T01:34:33;97438.88;;;14.90;100.00
15884;BME280;8040;50.254;10.960;2023-08-07T01:36:59;97441.50;;;14.86;100.00
15884;BME280;8040;50.254;10.960;2023-08-07T01:39:25;97444.22;;;14.86;100.00
15884;BME280;8040;50.254;10.960;2023-08-07T01:41:51;97441.84;;;14.85;100.00
15884;BME280;8040;50.254;10.960;2023-08-07T01:44:16;97457.00;;;14.82;100.00
15884;BME280;8040;50.254;10.960;2023-08-07T01:46:42;97451.88;;;14.81;100.00
15884;BME280;8040;50.254;10.960;2023-08-07T01:49:07;97449.84;;;14.78;100.00
15884;BME280;8040;50.254;10.960;2023-08-07T01:51:33;97453.47;;;14.70;100.00
15884;BME280;8040;50.254;10.960;2023-08-07T01:53:59;97450.75;;;14.70;100.00
15884;BME280;8040;50.254;10.960;2023-08-07T01:56:24;97457.47;;;14.72;100.00
15884;BME280;8040;50.254;10.960;2023-08-07T01:58:49;97463.25;;;14.71;100.00
15884;BME280;8040;50.254;10.960;2023-08-07T02:01:15;97464.88;;;14.72;100.00
15884;BME280;8040;50.254;10.960;2023-08-07T02:03:40;97464.06;;;14.71;100.00
15884;BME280;8040;50.254;10.960;2023-08-07T02:06:05;97482.03;;;14.72;100.00
15884;BME280;8040;50.254;10.960;2023-08-07T02:08:30;97486.25;;;14.70;100.00
15884;BME280;8040;50.254;10.960;2023-08-07T02:10:56;97479.19;;;14.69;100.00
15884;BME280;8040;50.254;10.960;2023-08-07T02:16:43;97486.94;;;14.67;100.00
15884;BME280;8040;50.254;10.960;2023-08-07T02:19:08;97488.66;;;14.59;100.00
15884;BME280;8040;50.254;10.960;2023-08-07T02:21:36;97496.50;;;14.61;100.00
15884;BME280;8040;50.254;10.960;2023-08-07T02:24:01;97490.13;;;14.57;100.00
15884;BME280;8040;50.254;10.960;2023-08-07T02:26:26;97495.91;;;14.55;100.00
15884;BME280;8040;50.254;10.960;2023-08-07T02:28:52;97497.66;;;14.60;100.00
15884;BME280;8040;50.254;10.960;2023-08-07T02:31:17;97493.31;;;14.59;100.00
15884;BME280;8040;50.254;10.960;2023-08-07T02:33:42;97499.13;;;14.57;100.00
15884;BME280;8040;50.254;10.960;2023-08-07T02:36:08;97498.66;;;14.55;100.00
15884;BME280;8040;50.254;10.960;2023-08-07T02:38:33;97499.00;;;14.54;100.00
15884;BME280;8040;50.254;10.960;2023-08-07T02:40:58;97502.09;;;14.52;100.00
15884;BME280;8040;50.254;10.960;2023-08-07T02:43:24;97504.69;;;14.49;100.00
15884;BME280;8040;50.254;10.960;2023-08-07T02:45:49;97504.22;;;14.47;100.00
15884;BME280;8040;50.254;10.960;2023-08-07T02:48:14;97506.84;;;14.43;100.00
15884;BME280;8040;50.254;10.960;2023-08-07T02:50:40;97515.41;;;14.42;100.00
15884;BME280;8040;50.254;10.960;2023-08-07T02:53:05;97518.47;;;14.40;100.00
15884;BME280;8040;50.254;10.960;2023-08-07T02:55:30;97521.97;;;14.41;100.00
15884;BME280;8040;50.254;10.960;2023-08-07T02:57:55;97517.66;;;14.40;100.00
15884;BME280;8040;50.254;10.960;2023-08-07T03:03:46;97518.91;;;14.42;100.00
15884;BME280;8040;50.254;10.960;2023-08-07T03:06:13;97521.75;;;14.46;100.00
15884;BME280;8040;50.254;10.960;2023-08-07T03:08:39;97523.59;;;14.42;100.00
15884;BME280;8040;50.254;10.960;2023-08-07T03:11:04;97525.38;;;14.38;100.00
15884;BME280;8040;50.254;10.960;2023-08-07T03:13:29;97523.81;;;14.37;100.00
15884;BME280;8040;50.254;10.960;2023-08-07T03:16:04;97534.72;;;14.37;100.00
15884;BME280;8040;50.254;10.960;2023-08-07T03:18:30;97532.31;;;14.35;100.00
15884;BME280;8040;50.254;10.960;2023-08-07T03:20:55;97534.72;;;14.37;100.00
15884;BME280;8040;50.254;10.960;2023-08-07T03:23:22;97537.88;;;14.39;100.00
15884;BME280;8040;50.254;10.960;2023-08-07T03:25:47;97540.19;;;14.37;100.00
15884;BME280;8040;50.254;10.960;2023-08-07T03:28:12;97540.19;;;14.37;100.00
15884;BME280;8040;50.254;10.960;2023-08-07T03:30:38;97539.25;;;14.33;100.00
15884;BME280;8040;50.254;10.960;2023-08-07T03:33:03;97549.38;;;14.32;100.00
15884;BME280;8040;50.254;10.960;2023-08-07T03:35:28;97550.63;;;14.35;100.00
15884;BME280;8040;50.254;10.960;2023-08-07T03:37:53;97548.56;;;14.32;100.00
15884;BME280;8040;50.254;10.960;2023-08-07T03:40:19;97549.84;;;14.34;100.00
15884;BME280;8040;50.254;10.960;2023-08-07T03:42:44;97559.94;;;14.34;100.00
15884;BME280;8040;50.254;10.960;2023-08-07T03:45:09;97561.06;;;14.33;100.00
15884;BME280;8040;50.254;10.960;2023-08-07T03:50:21;97564.94;;;14.32;100.00
15884;BME280;8040;50.254;10.960;2023-08-07T03:52:47;97573.00;;;14.28;100.00
15884;BME280;8040;50.254;10.960;2023-08-07T03:55:12;97574.94;;;14.28;100.00
15884;BME280;8040;50.254;10.960;2023-08-07T03:57:37;97578.13;;;14.30;100.00
15884;BME280;8040;50.254;10.960;2023-08-07T04:00:03;97581.75;;;14.34;100.00
15884;BME280;8040;50.254;10.960;2023-08-07T04:02:28;97581.44;;;14.35;100.00
15884;BME280;8040;50.254;10.960;2023-08-07T04:04:54;97581.44;;;14.35;100.00
15884;BME280;8040;50.254;10.960;2023-08-07T04:07:19;97579.03;;;14.34;100.00
15884;BME280;8040;50.254;10.960;2023-08-07T04:09:45;97586.09;;;14.35;100.00
15884;BME280;8040;50.254;10.960;2023-08-07T04:12:10;97583.03;;;14.36;100.00
15884;BME280;8040;50.254;10.960;2023-08-07T04:14:35;97595.88;;;14.36;100.00
15884;BME280;8040;50.254;10.960;2023-08-07T04:17:00;97591.78;;;14.30;100.00
15884;BME280;8040;50.254;10.960;2023-08-07T04:19:26;97596.75;;;14.28;100.00
15884;BME280;8040;50.254;10.960;2023-08-07T04:21:51;97599.16;;;14.29;100.00
15884;BME280;8040;50.254;10.960;2023-08-07T04:24:17;97603.69;;;14.25;100.00
15884;BME280;8040;50.254;10.960;2023-08-07T04:26:44;97603.69;;;14.25;100.00
15884;BME280;8040;50.254;10.960;2023-08-07T04:29:10;97598.22;;;14.25;100.00
15884;BME280;8040;50.254;10.960;2023-08-07T04:31:35;97603.47;;;14.30;100.00
15884;BME280;8040;50.254;10.960;2023-08-07T04:34:00;97610.19;;;14.33;100.00
15884;BME280;8040;50.254;10.960;2023-08-07T04:36:26;97603.13;;;14.32;100.00
15884;BME280;8040;50.254;10.960;2023-08-07T04:38:51;97598.59;;;14.36;100.00
15884;BME280;8040;50.254;10.960;2023-08-07T04:41:16;97602.94;;;14.37;100.00
15884;BME280;8040;50.254;10.960;2023-08-07T04:43:42;97607.56;;;14.36;99.37
15884;BME280;8040;50.254;10.960;2023-08-07T04:46:10;97612.13;;;14.32;99.34
15884;BME280;8040;50.254;10.960;2023-08-07T04:48:37;97607.78;;;14.31;99.25
15884;BME280;8040;50.254;10.960;2023-08-07T04:51:11;97626.09;;;14.31;99.19
15884;BME280;8040;50.254;10.960;2023-08-07T04:53:37;97628.16;;;14.34;99.24
15884;BME280;8040;50.254;10.960;2023-08-07T04:56:02;97630.31;;;14.40;99.93
15884;BME280;8040;50.254;10.960;2023-08-07T04:58:30;97630.00;;;14.42;99.64
15884;BME280;8040;50.254;10.960;2023-08-07T05:00:55;97630.44;;;14.44;99.37
15884;BME280;8040;50.254;10.960;2023-08-07T05:03:21;97628.84;;;14.43;100.00
15884;BME280;8040;50.254;10.960;2023-08-07T05:05:46;97636.81;;;14.48;99.03
15884;BME280;8040;50.254;10.960;2023-08-07T05:08:12;97633.84;;;14.41;98.00
15884;BME280;8040;50.254;10.960;2023-08-07T05:10:37;97637.59;;;14.36;97.29
15884;BME280;8040;50.254;10.960;2023-08-07T05:15:37;97637.25;;;14.38;98.80
15884;BME280;8040;50.254;10.960;2023-08-07T05:18:02;97632.00;;;14.33;97.79
15884;BME280;8040;50.254;10.960;2023-08-07T05:20:27;97651.09;;;14.33;97.56
15884;BME280;8040;50.254;10.960;2023-08-07T05:22:53;97642.03;;;14.29;98.23
15884;BME280;8040;50.254;10.960;2023-08-07T05:25:18;97639.41;;;14.32;99.01
15884;BME280;8040;50.254;10.960;2023-08-07T05:27:47;97637.34;;;14.29;100.00
15884;BME280;8040;50.254;10.960;2023-08-07T05:30:12;97651.31;;;14.28;100.00
15884;BME280;8040;50.254;10.960;2023-08-07T05:32:38;97650.22;;;14.29;99.42
15884;BME280;8040;50.254;10.960;2023-08-07T05:35:09;97647.81;;;14.27;99.26
15884;BME280;8040;50.254;10.960;2023-08-07T05:37:34;97650.22;;;14.29;99.45
15884;BME280;8040;50.254;10.960;2023-08-07T05:40:01;97659.97;;;14.30;100.00
15884;BME280;8040;50.254;10.960;2023-08-07T05:42:27;97657.59;;;14.28;100.00
15884;BME280;8040;50.254;10.960;2023-08-07T05:44:53;97663.03;;;14.28;100.00
15884;BME280;8040;50.254;10.960;2023-08-07T05:47:18;97659.88;;;14.26;100.00
15884;BME280;8040;50.254;10.960;2023-08-07T05:49:44;97658.16;;;14.34;100.00
15884;BME280;8040;50.254;10.960;2023-08-07T05:52:09;97666.56;;;14.41;100.00
15884;BME280;8040;50.254;10.960;2023-08-07T05:54:34;97672.84;;;14.41;100.00
15884;BME280;8040;50.254;10.960;2023-08-07T05:57:01;97667.38;;;14.41;100.00
15884;BME280;8040;50.254;10.960;2023-08-07T05:59:26;97672.19;;;14.44;100.00
15884;BME280;8040;50.254;10.960;2023-08-07T06:01:52;97676.63;;;14.49;100.00
15884;BME280;8040;50.254;10.960;2023-08-07T06:04:18;97671.28;;;14.52;99.94
15884;BME280;8040;50.254;10.960;2023-08-07T06:06:43;97676.28;;;14.50;98.87
15884;BME280;8040;50.254;10.960;2023-08-07T06:09:09;97677.53;;;14.53;98.77
15884;BME280;8040;50.254;10.960;2023-08-07T06:11:34;97680.72;;;14.55;98.53
15884;BME280;8040;50.254;10.960;2023-08-07T06:14:00;97688.59;;;14.56;98.67
15884;BME280;8040;50.254;10.960;2023-08-07T06:16:26;97685.50;;;14.58;98.31
15884;BME280;8040;50.254;10.960;2023-08-07T06:18:52;97688.91;;;14.55;97.91
15884;BME280;8040;50.254;10.960;2023-08-07T06:21:17;97682.53;;;14.51;97.68
15884;BME280;8040;50.254;10.960;2023-08-07T06:23:43;97690.38;;;14.52;97.49
15884;BME280;8040;50.254;10.960;2023-08-07T06:26:08;97690.25;;;14.49;97.07
15884;BME280;8040;50.254;10.960;2023-08-07T06:28:34;97697.31;;;14.50;97.04
15884;BME280;8040;50.254;10.960;2023-08-07T06:31:07;97694.25;;;14.51;97.89
15884;BME280;8040;50.254;10.960;2023-08-07T06:33:33;97680.94;;;14.50;98.22
15884;BME280;8040;50.254;10.960;2023-08-07T06:35:59;97703.00;;;14.57;97.39
15884;BME280;8040;50.254;10.960;2023-08-07T06:38:24;97699.94;;;14.58;97.38
15884;BME280;8040;50.254;10.960;2023-08-07T06:40:51;97698.00;;;14.59;96.62
15884;BME280;8040;50.254;10.960;2023-08-07T06:43:17;97694.59;;;14.62;96.63
15884;BME280;8040;50.254;10.960;2023-08-07T06:45:42;97697.78;;;14.64;97.27
15884;BME280;8040;50.254;10.960;2023-08-07T06:48:07;97706.19;;;14.59;96.72
15884;BME280;8040;50.254;10.960;2023-08-07T06:50:33;97697.34;;;14.62;96.76
15884;BME280;8040;50.254;10.960;2023-08-07T06:52:58;97701.66;;;14.63;96.93
15884;BME280;8040;50.254;10.960;2023-08-07T06:55:23;97698.59;;;14.64;96.78
15884;BME280;8040;50.254;10.960;2023-08-07T06:57:49;97707.94;;;14.63;96.05
15884;BME280;8040;50.254;10.960;2023-08-07T07:00:15;97704.38;;;14.63;96.15
15884;BME280;8040;50.254;10.960;2023-08-07T07:02:40;97709.06;;;14.62;96.44
15884;BME280;8040;50.254;10.960;2023-08-07T07:05:06;97722.72;;;14.62;96.63
15884;BME280;8040;50.254;10.960;2023-08-07T07:07:31;97714.28;;;14.67;97.04
15884;BME280;8040;50.254;10.960;2023-08-07T07:09:56;97716.13;;;14.63;95.85
15884;BME280;8040;50.254;10.960;2023-08-07T07:12:25;97720.44;;;14.64;96.67
15884;BME280;8040;50.254;10.960;2023-08-07T07:14:50;97724.09;;;14.68;95.23
15884;BME280;8040;50.254;10.960;2023-08-07T07:17:16;97731.22;;;14.61;94.63
15884;BME280;8040;50.254;10.960;2023-08-07T07:19:41;97728.38;;;14.57;94.97
15884;BME280;8040;50.254;10.960;2023-08-07T07:22:07;97743.16;;;14.56;94.81
15884;BME280;8040;50.254;10.960;2023-08-07T07:27:56;97750.22;;;14.57;95.42
15884;BME280;8040;50.254;10.960;2023-08-07T07:30:21;97752.00;;;14.53;94.20
15884;BME280;8040;50.254;10.960;2023-08-07T07:32:47;97754.75;;;14.53;94.04
15884;BME280;8040;50.254;10.960;2023-08-07T07:35:12;97754.94;;;14.48;94.13
15884;BME280;8040;50.254;10.960;2023-08-07T07:37:37;97756.22;;;14.51;94.85
15884;BME280;8040;50.254;10.960;2023-08-07T07:40:03;97767.59;;;14.53;94.99
15884;BME280;8040;50.254;10.960;2023-08-07T07:42:28;97762.81;;;14.50;94.94
15884;BME280;8040;50.254;10.960;2023-08-07T07:44:54;97770.78;;;14.55;94.91
15884;BME280;8040;50.254;10.960;2023-08-07T07:47:20;97766.72;;;14.61;95.23
15884;BME280;8040;50.254;10.960;2023-08-07T07:49:46;97776.16;;;14.63;94.70
15884;BME280;8040;50.254;10.960;2023-08-07T07:52:17;97783.53;;;14.63;94.04
15884;BME280;8040;50.254;10.960;2023-08-07T07:54:43;97783.34;;;14.68;94.60
15884;BME280;8040;50.254;10.960;2023-08-07T07:57:08;97780.72;;;14.71;94.47
15884;BME280;8040;50.254;10.960;2023-08-07T07:59:33;97791.78;;;14.75;93.88
15884;BME280;8040;50.254;10.960;2023-08-07T08:01:58;97788.38;;;14.78;93.66
15884;BME280;8040;50.254;10.960;2023-08-07T08:04:24;97796.00;;;14.84;94.24
15884;BME280;8040;50.254;10.960;2023-08-07T08:06:49;97804.81;;;14.90;94.12
15884;BME280;8040;50.254;10.960;2023-08-07T08:09:15;97791.38;;;14.97;94.15
15884;BME280;8040;50.254;10.960;2023-08-07T08:11:40;97802.75;;;14.99;92.83
15884;BME280;8040;50.254;10.960;2023-08-07T08:14:07;97811.28;;;14.97;93.57
15884;BME280;8040;50.254;10.960;2023-08-07T08:16:32;97811.28;;;14.97;93.02
15884;BME280;8040;50.254;10.960;2023-08-07T08:18:58;97812.09;;;14.98;93.58
15884;BME280;8040;50.254;10.960;2023-08-07T08:21:23;97815.97;;;14.97;93.58
15884;BME280;8040;50.254;10.960;2023-08-07T08:23:48;97818.69;;;14.97;93.00
15884;BME280;8040;50.254;10.960;2023-08-07T08:26:14;97826.31;;;15.03;93.74
15884;BME280;8040;50.254;10.960;2023-08-07T08:28:39;97830.44;;;15.09;94.30
15884;BME280;8040;50.254;10.960;2023-08-07T08:31:05;97823.03;;;15.10;94.70
15884;BME280;8040;50.254;10.960;2023-08-07T08:33:30;97834.22;;;15.17;94.97
15884;BME280;8040;50.254;10.960;2023-08-07T08:36:04;97828.06;;;15.20;94.72
15884;BME280;8040;50.254;10.960;2023-08-07T08:38:30;97826.25;;;15.24;94.31
15884;BME280;8040;50.254;10.960;2023-08-07T08:40:57;97833.41;;;15.28;93.65
15884;BME280;8040;50.254;10.960;2023-08-07T08:43:25;97837.41;;;15.31;93.50
15884;BME280;8040;50.254;10.960;2023-08-07T08:45:52;97840.50;;;15.29;93.48
15884;BME280;8040;50.254;10.960;2023-08-07T08:48:19;97847.56;;;15.30;93.90
15884;BME280;8040;50.254;10.960;2023-08-07T08:50:49;97844.72;;;15.27;93.01
15884;BME280;8040;50.254;10.960;2023-08-07T08:53:15;97843.47;;;15.24;93.97
15884;BME280;8040;50.254;10.960;2023-08-07T08:55:41;97855.63;;;15.15;93.07
15884;BME280;8040;50.254;10.960;2023-08-07T08:58:08;97856.84;;;15.05;93.34
15884;BME280;8040;50.254;10.960;2023-08-07T09:00:33;97857.38;;;14.99;94.30
15884;BME280;8040;50.254;10.960;2023-08-07T09:02:59;97851.00;;;14.95;95.18
15884;BME280;8040;50.254;10.960;2023-08-07T09:05:26;97859.63;;;14.85;93.73
15884;BME280;8040;50.254;10.960;2023-08-07T09:07:52;97861.09;;;14.82;94.58
15884;BME280;8040;50.254;10.960;2023-08-07T09:10:17;97857.44;;;14.78;94.63
15884;BME280;8040;50.254;10.960;2023-08-07T09:12:47;97873.69;;;14.75;94.33
15884;BME280;8040;50.254;10.960;2023-08-07T09:15:14;97865.03;;;14.73;95.82
15884;BME280;8040;50.254;10.960;2023-08-07T09:17:41;97871.06;;;14.78;96.33
15884;BME280;8040;50.254;10.960;2023-08-07T09:23:32;97875.19;;;14.84;96.27
15884;BME280;8040;50.254;10.960;2023-08-07T09:26:01;97876.47;;;14.87;97.67
15884;BME280;8040;50.254;10.960;2023-08-07T09:28:27;97884.44;;;14.92;97.00
15884;BME280;8040;50.254;10.960;2023-08-07T09:30:53;97882.16;;;14.94;96.79
15884;BME280;8040;50.254;10.960;2023-08-07T09:33:25;97877.97;;;14.96;96.62
15884;BME280;8040;50.254;10.960;2023-08-07T09:35:50;97882.66;;;14.96;96.65
15884;BME280;8040;50.254;10.960;2023-08-07T09:38:16;97891.75;;;15.00;96.01
15884;BME280;8040;50.254;10.960;2023-08-07T09:40:41;97891.75;;;15.00;96.19
15884;BME280;8040;50.254;10.960;2023-08-07T09:43:07;97890.63;;;15.01;96.28
15884;BME280;8040;50.254;10.960;2023-08-07T09:45:32;97900.00;;;15.12;97.44
15884;BME280;8040;50.254;10.960;2023-08-07T09:48:03;97897.50;;;15.19;97.22
15884;BME280;8040;50.254;10.960;2023-08-07T09:50:29;97899.44;;;15.18;96.40
15884;BME280;8040;50.254;10.960;2023-08-07T09:52:55;97900.34;;;15.22;96.36
15884;BME280;8040;50.254;10.960;2023-08-07T09:55:21;97908.66;;;15.26;95.59
15884;BME280;8040;50.254;10.960;2023-08-07T09:57:46;97906.09;;;15.29;95.80
15884;BME280;8040;50.254;10.960;2023-08-07T10:00:12;97903.25;;;15.38;96.51
15884;BME280;8040;50.254;10.960;2023-08-07T10:02:40;97905.78;;;15.43;96.30
15884;BME280;8040;50.254;10.960;2023-08-07T10:05:05;97909.66;;;15.42;93.84
15884;BME280;8040;50.254;10.960;2023-08-07T10:07:37;97914.00;;;15.43;93.89
15884;BME280;8040;50.254;10.960;2023-08-07T10:10:03;97913.91;;;15.51;94.04
15884;BME280;8040;50.254;10.960;2023-08-07T10:12:29;97917.44;;;15.52;93.50
15884;BME280;8040;50.254;10.960;2023-08-07T10:14:54;97919.47;;;15.55;92.59
15884;BME280;8040;50.254;10.960;2023-08-07T10:17:23;97932.50;;;15.58;93.39
15884;BME280;8040;50.254;10.960;2023-08-07T10:19:48;97916.75;;;15.55;92.30
15884;BME280;8040;50.254;10.960;2023-08-07T10:22:20;97928.38;;;15.52;93.45
15884;BME280;8040;50.254;10.960;2023-08-07T10:24:48;97925.75;;;15.55;92.95
15884;BME280;8040;50.254;10.960;2023-08-07T10:27:15;97935.09;;;15.54;91.90
15884;BME280;8040;50.254;10.960;2023-08-07T10:29:41;97929.53;;;15.63;92.47
15884;BME280;8040;50.254;10.960;2023-08-07T10:32:07;97931.25;;;15.67;92.79
15884;BME280;8040;50.254;10.960;2023-08-07T10:34:33;97937.88;;;15.66;91.68
15884;BME280;8040;50.254;10.960;2023-08-07T10:36:59;97936.94;;;15.74;92.00
15884;BME280;8040;50.254;10.960;2023-08-07T10:39:24;97938.00;;;15.82;91.13
15884;BME280;8040;50.254;10.960;2023-08-07T10:41:52;97937.28;;;15.73;89.80
15884;BME280;8040;50.254;10.960;2023-08-07T10:44:22;97935.56;;;15.68;89.85
15884;BME280;8040;50.254;10.960;2023-08-07T10:46:52;97945.16;;;15.74;91.14
15884;BME280;8040;50.254;10.960;2023-08-07T10:49:39;97942.75;;;15.73;90.04
15884;BME280;8040;50.254;10.960;2023-08-07T10:52:05;97944.34;;;15.74;89.79
15884;BME280;8040;50.254;10.960;2023-08-07T10:54:36;97944.94;;;15.79;89.57
15884;BME280;8040;50.254;10.960;2023-08-07T10:57:07;97949.94;;;15.77;88.95
15884;BME280;8040;50.254;10.960;2023-08-07T10:59:34;97958.50;;;15.76;89.00
15884;BME280;8040;50.254;10.960;2023-08-07T11:02:02;97951.88;;;15.65;87.96
15884;BME280;8040;50.254;10.960;2023-08-07T11:04:32;97959.59;;;15.51;88.13
15884;BME280;8040;50.254;10.960;2023-08-07T11:07:01;97957.50;;;15.48;86.41
15884;BME280;8040;50.254;10.960;2023-08-07T11:09:27;97958.22;;;15.45;88.00
15884;BME280;8040;50.254;10.960;2023-08-07T11:14:55;97962.16;;;15.47;89.84
15884;BME280;8040;50.254;10.960;2023-08-07T11:17:28;97957.72;;;15.43;89.49
15884;BME280;8040;50.254;10.960;2023-08-07T11:19:53;97962.03;;;15.44;89.08
15884;BME280;8040;50.254;10.960;2023-08-07T11:22:20;97961.94;;;15.40;87.83
15884;BME280;8040;50.254;10.960;2023-08-07T11:24:49;97959.31;;;15.44;88.54
15884;BME280;8040;50.254;10.960;2023-08-07T11:27:15;97962.16;;;15.47;88.75
15884;BME280;8040;50.254;10.960;2023-08-07T11:29:40;97961.06;;;15.48;89.67
15884;BME280;8040;50.254;10.960;2023-08-07T11:32:06;97964.13;;;15.47;87.49
15884;BME280;8040;50.254;10.960;2023-08-07T11:34:37;97961.16;;;15.40;87.59
15884;BME280;8040;50.254;10.960;2023-08-07T11:37:03;97977.06;;;15.38;88.01
15884;BME280;8040;50.254;10.960;2023-08-07T11:39:28;97974.69;;;15.36;86.70
15884;BME280;8040;50.254;10.960;2023-08-07T11:41:53;97971.72;;;15.41;87.34
15884;BME280;8040;50.254;10.960;2023-08-07T11:44:19;97976.66;;;15.48;86.26
15884;BME280;8040;50.254;10.960;2023-08-07T11:46:45;97969.38;;;15.52;85.74
15884;BME280;8040;50.254;10.960;2023-08-07T11:49:10;97964.81;;;15.56;85.78
15884;BME280;8040;50.254;10.960;2023-08-07T11:51:37;97962.81;;;15.65;86.92
15884;BME280;8040;50.254;10.960;2023-08-07T11:54:02;97970.41;;;15.59;85.37
15884;BME280;8040;50.254;10.960;2023-08-07T11:56:29;97949.06;;;15.41;84.92
15884;BME280;8040;50.254;10.960;2023-08-07T11:58:56;97973.94;;;15.60;84.63
15884;BME280;8040;50.254;10.960;2023-08-07T12:01:22;97966.31;;;15.65;84.51
15884;BME280;8040;50.254;10.960;2023-08-07T12:06:16;97992.44;;;15.75;84.38
15884;BME280;8040;50.254;10.960;2023-08-07T12:08:42;97986.50;;;15.73;82.15
15884;BME280;8040;50.254;10.960;2023-08-07T12:11:08;97990.28;;;15.80;83.46
15884;BME280;8040;50.254;10.960;2023-08-07T12:13:36;97980.28;;;15.84;82.51
15884;BME280;8040;50.254;10.960;2023-08-07T12:16:02;97987.66;;;15.84;80.74
15884;BME280;8040;50.254;10.960;2023-08-07T12:18:34;97997.13;;;15.86;80.58
15884;BME280;8040;50.254;10.960;2023-08-07T12:21:01;98005.00;;;15.88;79.23
15884;BME280;8040;50.254;10.960;2023-08-07T12:23:27;97999.53;;;15.88;79.53
15884;BME280;8040;50.254;10.960;2023-08-07T12:25:53;98006.72;;;15.92;81.72
15884;BME280;8040;50.254;10.960;2023-08-07T12:28:18;97997.72;;;15.92;80.60
15884;BME280;8040;50.254;10.960;2023-08-07T12:30:44;98006.72;;;15.92;80.34
15884;BME280;8040;50.254;10.960;2023-08-07T12:33:10;98001.13;;;15.89;80.03
15884;BME280;8040;50.254;10.960;2023-08-07T12:35:36;98000.44;;;15.92;80.40
15884;BME280;8040;50.254;10.960;2023-08-07T12:38:01;97997.03;;;15.95;81.23
15884;BME280;8040;50.254;10.960;2023-08-07T12:40:28;97996.81;;;16.00;80.81
15884;BME280;8040;50.254;10.960;2023-08-07T12:42:54;98000.94;;;16.06;80.35
15884;BME280;8040;50.254;10.960;2023-08-07T12:45:19;98000.94;;;16.17;81.22
15884;BME280;8040;50.254;10.960;2023-08-07T12:47:45;98007.31;;;16.33;80.26
15884;BME280;8040;50.254;10.960;2023-08-07T12:50:11;98006.41;;;16.53;80.35
15884;BME280;8040;50.254;10.960;2023-08-07T12:52:36;98012.38;;;16.55;79.31
15884;BME280;8040;50.254;10.960;2023-08-07T12:55:01;98009.16;;;16.65;78.95
15884;BME280;8040;50.254;10.960;2023-08-07T12:57:27;98014.72;;;16.69;78.38
15884;BME280;8040;50.254;10.960;2023-08-07T12:59:52;98016.56;;;16.77;77.62
15884;BME280;8040;50.254;10.960;2023-08-07T13:02:19;98014.59;;;16.89;77.34
15884;BME280;8040;50.254;10.960;2023-08-07T13:04:44;98014.34;;;17.06;77.74
15884;BME280;8040;50.254;10.960;2023-08-07T13:07:10;98024.50;;;17.06;75.70
15884;BME280;8040;50.254;10.960;2023-08-07T13:09:36;98023.13;;;17.12;75.14
15884;BME280;8040;50.254;10.960;2023-08-07T13:12:01;98022.09;;;17.04;73.84
15884;BME280;8040;50.254;10.960;2023-08-07T13:14:26;98033.31;;;16.87;73.58
15884;BME280;8040;50.254;10.960;2023-08-07T13:16:55;98027.88;;;16.63;73.05